Time;durP1;ratioP1;P1;durP2;ratioP2;P2;SDS_P1;SDS_P2;PMS_P1;PMS_P2;Temp;Humidity;BMP_temperature;BMP_pressure;BME280_temperature;BME280_humidity;BME280_pressure;Samples;Min_cycle;Max_cycle;Signal;HPM_P1;HPM_P2
2023/07/07 00:02:23;;;;;;;16.83;7.43;;;;;;;-143.84;63.03;44997.66;5068320;28;20539;-58
2023/07/07 00:04:50;;;;;;;11.13;7.73;;;;;;;-143.84;63.39;45005.28;5068561;28;21160;-58
2023/07/07 00:07:17;;;;;;;12.17;7.03;;;;;;;-143.84;63.48;45022.41;5067909;28;20501;-58
2023/07/07 00:09:44;;;;;;;8.90;6.60;;;;;;;-143.84;63.85;45007.19;5068552;28;20444;-58
2023/07/07 00:12:13;;;;;;;16.43;6.47;;;;;;;-143.84;63.96;45001.47;5068878;28;20444;-58
2023/07/07 00:14:41;;;;;;;17.00;7.27;;;;;;;-143.84;64.54;45003.38;5069087;28;20444;-58
2023/07/07 00:17:10;;;;;;;12.17;7.50;;;;;;;-143.84;64.85;44990.03;5069044;28;20512;-58
2023/07/07 00:19:37;;;;;;;18.33;7.07;;;;;;;-143.84;65.28;45018.59;5069118;28;20451;-59
2023/07/07 00:22:07;;;;;;;11.90;6.73;;;;;;;-143.84;65.60;45007.19;5068850;28;20529;-58
2023/07/07 00:24:34;;;;;;;10.73;6.37;;;;;;;-143.84;65.69;44997.66;5068767;28;20485;-59
2023/07/07 00:27:02;;;;;;;8.53;6.93;;;;;;;-143.84;66.21;45001.47;5069511;28;20435;-59
2023/07/07 00:29:29;;;;;;;9.50;6.87;;;;;;;-143.84;66.14;45010.97;5069309;28;20478;-59
2023/07/07 00:31:59;;;;;;;9.10;6.90;;;;;;;-143.84;66.54;45024.31;5069104;28;20445;-59
2023/07/07 00:34:27;;;;;;;9.30;7.40;;;;;;;-143.84;66.62;45003.38;5069023;28;20444;-59
2023/07/07 00:36:54;;;;;;;10.03;7.60;;;;;;;-143.84;67.13;45010.97;5068986;28;20512;-59
2023/07/07 00:39:21;;;;;;;7.43;6.73;;;;;;;-143.84;67.56;45037.66;5068492;28;20434;-58
2023/07/07 00:41:48;;;;;;;17.37;7.20;;;;;;;-143.84;67.44;45024.31;5068928;28;20516;-58
2023/07/07 00:44:15;;;;;;;12.90;7.97;;;;;;;-143.84;67.52;45026.22;5068905;28;20492;-58
2023/07/07 00:46:42;;;;;;;14.60;7.40;;;;;;;-143.84;68.08;45010.97;5071186;28;20446;-58
2023/07/07 00:49:15;;;;;;;9.33;6.83;;;;;;;-143.84;68.76;45010.97;5072381;28;20477;-58
2023/07/07 00:51:48;;;;;;;8.70;6.80;;;;;;;-143.84;69.23;45024.31;5072403;28;20450;-58
2023/07/07 00:54:18;;;;;;;8.93;6.40;;;;;;;-143.84;69.63;45012.88;5072668;28;20438;-58
2023/07/07 00:56:49;;;;;;;10.33;7.30;;;;;;;-143.84;69.79;45003.38;5072325;28;20449;-58
2023/07/07 00:59:19;;;;;;;12.53;7.10;;;;;;;-143.84;69.69;45003.38;5072252;28;20449;-58
2023/07/07 01:01:47;;;;;;;10.33;7.03;;;;;;;-143.84;70.46;45009.09;5072283;28;20442;-58
2023/07/07 01:04:18;;;;;;;8.07;5.90;;;;;;;-143.84;70.29;45039.53;5071927;28;20481;-58
2023/07/07 01:06:50;;;;;;;12.50;7.30;;;;;;;-143.84;70.64;45018.59;5072035;28;20534;-58
2023/07/07 01:09:17;;;;;;;20.23;7.10;;;;;;;-143.84;70.32;45022.41;5072072;28;21351;-58
2023/07/07 01:11:46;;;;;;;12.80;6.70;;;;;;;-143.84;70.42;45030.03;5072017;28;20433;-58
2023/07/07 01:14:17;;;;;;;13.00;7.97;;;;;;;-143.84;70.61;45022.41;5071323;28;20508;-58
2023/07/07 01:16:56;;;;;;;21.77;6.70;;;;;;;-143.84;70.67;45028.13;5072088;28;20503;-58
2023/07/07 01:19:46;;;;;;;7.13;6.30;;;;;;;-143.84;71.23;45016.69;5072026;28;20439;-58
2023/07/07 01:22:42;;;;;;;7.93;6.23;;;;;;;-143.84;71.25;45001.47;5072151;28;20441;-58
2023/07/07 01:25:20;;;;;;;15.57;7.27;;;;;;;-143.84;71.50;45010.97;5071754;28;20450;-58
2023/07/07 01:28:19;;;;;;;15.20;7.03;;;;;;;-143.84;71.65;45016.69;5071627;28;20927;-58
2023/07/07 01:30:52;;;;;;;8.90;5.90;;;;;;;-143.84;71.95;45014.78;5071655;28;20449;-58
2023/07/07 01:33:23;;;;;;;13.93;6.80;;;;;;;-143.84;71.83;45035.75;5071618;28;20519;-58
2023/07/07 01:35:51;;;;;;;14.13;6.53;;;;;;;-143.84;72.02;45047.16;5071457;28;20500;-58
2023/07/07 01:38:31;;;;;;;12.57;6.80;;;;;;;-143.84;72.36;45031.94;5071341;28;20449;-58
2023/07/07 01:41:04;;;;;;;9.80;7.10;;;;;;;-143.84;72.49;45003.38;5071606;28;20446;-58
2023/07/07 01:43:39;;;;;;;7.10;6.50;;;;;;;-143.84;72.62;45022.41;5071413;28;20442;-58
2023/07/07 01:46:16;;;;;;;7.17;6.47;;;;;;;-143.84;72.76;45024.31;5071587;28;20942;-58
2023/07/07 01:48:51;;;;;;;7.50;6.70;;;;;;;-143.84;72.85;45016.69;5071081;28;20485;-58
2023/07/07 01:51:20;;;;;;;9.10;6.53;;;;;;;-143.84;73.24;45022.41;5071842;28;20487;-58
2023/07/07 01:53:51;;;;;;;15.33;6.80;;;;;;;-143.84;73.46;45030.03;5071267;28;20437;-58
2023/07/07 01:56:22;;;;;;;7.10;6.20;;;;;;;-143.84;73.25;45035.75;5070671;28;20457;-58
2023/07/07 01:58:49;;;;;;;6.77;6.07;;;;;;;-143.84;73.64;45014.78;5071294;28;20445;-58
2023/07/07 02:01:18;;;;;;;9.17;5.90;;;;;;;-143.84;73.93;45031.94;5070957;28;20471;-58
2023/07/07 02:03:45;;;;;;;9.73;6.13;;;;;;;-143.84;73.92;45028.13;5070482;28;20496;-58
2023/07/07 02:06:12;;;;;;;9.93;6.50;;;;;;;-143.84;74.16;45030.03;5071101;28;20435;-58
2023/07/07 02:08:40;;;;;;;9.40;6.73;;;;;;;-143.84;74.16;45020.50;5071024;28;20924;-58
2023/07/07 02:11:07;;;;;;;8.77;6.10;;;;;;;-143.84;74.34;45018.59;5070640;28;20450;-58
2023/07/07 02:13:36;;;;;;;9.40;6.57;;;;;;;-143.84;74.48;45028.13;5070676;28;20827;-58
2023/07/07 02:16:04;;;;;;;11.10;6.20;;;;;;;-143.84;74.80;45022.41;5070849;28;20992;-58
2023/07/07 02:18:37;;;;;;;12.43;6.80;;;;;;;-143.84;75.02;45043.34;5071112;28;20438;-56
2023/07/07 02:21:04;;;;;;;10.83;6.47;;;;;;;-143.84;75.10;45020.50;5070955;28;20966;-56
2023/07/07 02:23:32;;;;;;;14.70;6.90;;;;;;;-143.84;75.49;45014.78;5070854;28;20504;-56
2023/07/07 02:25:59;;;;;;;7.33;6.63;;;;;;;-143.84;75.92;45020.50;5071145;28;20438;-56
2023/07/07 02:28:26;;;;;;;8.40;6.70;;;;;;;-143.84;75.84;45028.13;5070736;28;20482;-56
2023/07/07 02:30:54;;;;;;;8.00;6.50;;;;;;;-143.84;76.06;45047.16;5070672;28;20446;-56
2023/07/07 02:33:31;;;;;;;7.80;7.00;;;;;;;-143.84;76.09;45026.22;5070564;28;20439;-56
2023/07/07 02:36:02;;;;;;;20.43;6.97;;;;;;;-143.84;76.47;45052.88;5070641;28;20523;-56
2023/07/07 02:38:29;;;;;;;10.83;7.07;;;;;;;-143.84;76.88;45026.22;5070653;28;20545;-56
2023/07/07 02:40:57;;;;;;;12.13;6.40;;;;;;;-143.84;76.64;45026.22;5070617;28;20441;-56
2023/07/07 02:43:25;;;;;;;6.83;6.10;;;;;;;-143.84;76.97;45043.34;5070510;28;20955;-56
2023/07/07 02:45:52;;;;;;;14.57;7.03;;;;;;;-143.84;77.06;45035.75;5070593;28;20495;-56
2023/07/07 02:48:21;;;;;;;8.60;6.90;;;;;;;-143.84;77.02;45007.19;5070182;28;20449;-56
2023/07/07 02:50:55;;;;;;;12.40;6.43;;;;;;;-143.84;77.34;45026.22;5070424;28;20449;-56
2023/07/07 02:53:25;;;;;;;9.10;6.47;;;;;;;-143.84;77.29;45014.78;5070229;28;20433;-56
2023/07/07 02:55:52;;;;;;;23.90;8.00;;;;;;;-143.84;77.51;45028.13;5070409;28;20772;-56
2023/07/07 02:58:19;;;;;;;10.60;6.13;;;;;;;-143.84;77.68;45022.41;5069889;28;20445;-56
2023/07/07 03:00:46;;;;;;;9.90;7.60;;;;;;;-143.84;77.74;45003.38;5069930;28;20502;-56
2023/07/07 03:03:14;;;;;;;8.77;7.77;;;;;;;-143.84;77.66;45068.13;5069864;28;20994;-56
2023/07/07 03:05:41;;;;;;;12.40;7.10;;;;;;;-143.84;77.63;45024.31;5070059;28;20792;-56
2023/07/07 03:08:08;;;;;;;10.90;7.90;;;;;;;-143.84;77.35;45028.13;5069332;28;20985;-56
2023/07/07 03:10:38;;;;;;;6.97;6.30;;;;;;;-143.84;77.88;45026.22;5070153;28;20442;-56
2023/07/07 03:13:05;;;;;;;11.03;6.27;;;;;;;-143.84;77.91;45028.13;5069874;28;20457;-56
2023/07/07 03:15:39;;;;;;;9.20;6.60;;;;;;;-143.84;78.19;45043.34;5069732;28;20830;-56
2023/07/07 03:18:07;;;;;;;8.07;7.30;;;;;;;-143.84;78.11;45001.47;5070088;28;20441;-56
2023/07/07 03:20:34;;;;;;;15.40;6.67;;;;;;;-143.84;77.70;45022.41;5069696;28;20969;-56
2023/07/07 03:23:01;;;;;;;6.33;5.70;;;;;;;-143.84;77.93;45037.66;5069606;28;20495;-56
2023/07/07 03:25:29;;;;;;;9.10;6.73;;;;;;;-143.84;78.03;45052.88;5069637;28;20437;-56
2023/07/07 03:27:58;;;;;;;19.40;6.93;;;;;;;-143.84;77.60;45030.03;5069404;28;20567;-56
2023/07/07 03:30:26;;;;;;;15.40;6.20;;;;;;;-143.84;77.51;45028.13;5069081;28;20523;-56
2023/07/07 03:32:54;;;;;;;8.97;6.17;;;;;;;-143.84;77.14;45026.22;5069153;28;20452;-56
2023/07/07 03:35:21;;;;;;;7.63;6.27;;;;;;;-143.84;76.68;45035.75;5069350;28;20440;-56
2023/07/07 03:37:48;;;;;;;5.90;5.30;;;;;;;-143.84;75.74;45024.31;5069760;28;20944;-56
2023/07/07 03:40:15;;;;;;;15.10;6.03;;;;;;;-143.84;73.81;45041.44;5069554;28;20438;-56
2023/07/07 03:42:42;;;;;;;7.80;5.73;;;;;;;-143.84;71.22;45003.38;5069759;28;20542;-56
2023/07/07 03:45:11;;;;;;;6.67;5.70;;;;;;;-143.84;69.16;45018.59;5069148;28;20453;-57
2023/07/07 03:47:39;;;;;;;6.27;5.50;;;;;;;-143.84;67.27;45014.78;5069698;28;20935;-56
2023/07/07 03:50:07;;;;;;;6.33;5.60;;;;;;;-143.84;66.24;45016.69;5069598;28;20487;-56
2023/07/07 03:52:35;;;;;;;6.50;5.53;;;;;;;-143.84;65.83;44990.03;5069466;28;20441;-56
2023/07/07 03:55:03;;;;;;;7.60;5.77;;;;;;;-143.84;64.63;44991.94;5069341;28;20443;-56
2023/07/07 03:57:30;;;;;;;6.23;5.73;;;;;;;-143.84;64.33;45007.19;5069387;28;20489;-56
2023/07/07 03:59:57;;;;;;;7.20;5.33;;;;;;;-143.84;63.48;45022.41;5069219;28;21122;-56
2023/07/07 04:02:25;;;;;;;7.47;5.30;;;;;;;-143.84;63.25;45003.38;5069330;28;20444;-56
2023/07/07 04:04:52;;;;;;;9.83;5.43;;;;;;;-143.84;63.26;44999.56;5069501;28;20468;-56
2023/07/07 04:07:19;;;;;;;6.97;5.53;;;;;;;-143.84;63.06;45010.97;5069415;28;20501;-56
2023/07/07 04:09:47;;;;;;;5.73;5.23;;;;;;;-143.84;61.76;45010.97;5069169;28;20490;-56
2023/07/07 04:12:14;;;;;;;6.73;5.53;;;;;;;-143.84;61.30;45012.88;5069549;28;20440;-56
2023/07/07 04:14:41;;;;;;;8.10;4.63;;;;;;;-143.84;61.72;44999.56;5069123;28;20504;-56
2023/07/07 04:17:08;;;;;;;7.63;5.00;;;;;;;-143.84;61.38;45012.88;5069137;28;20444;-56
2023/07/07 04:19:36;;;;;;;6.87;5.10;;;;;;;-143.84;60.92;45020.50;5069954;28;20451;-56
2023/07/07 04:22:04;;;;;;;12.83;5.70;;;;;;;-143.84;61.12;44978.63;5073188;28;20508;-56
2023/07/07 04:24:31;;;;;;;8.13;5.03;;;;;;;-143.84;60.85;44995.75;5073187;28;20443;-56
2023/07/07 04:26:58;;;;;;;9.90;5.07;;;;;;;-143.84;60.14;44976.72;5073042;28;20503;-56
2023/07/07 04:29:25;;;;;;;8.53;5.27;;;;;;;-143.84;58.90;44986.22;5073137;28;21054;-56
2023/07/07 04:31:52;;;;;;;7.00;5.20;;;;;;;-143.84;58.25;44993.84;5072415;28;20444;-54
2023/07/07 04:34:19;;;;;;;4.43;4.13;;;;;;;-143.84;56.85;44999.56;5071755;28;20449;-54
2023/07/07 04:36:48;;;;;;;5.10;4.47;;;;;;;-143.84;56.77;44990.03;5072133;28;20440;-54
2023/07/07 04:39:15;;;;;;;5.97;4.70;;;;;;;-143.84;56.44;44972.91;5072827;28;20440;-54
2023/07/07 04:41:42;;;;;;;5.37;4.20;;;;;;;-143.84;56.42;44990.03;5072111;28;20445;-54
2023/07/07 04:44:09;;;;;;;5.47;4.50;;;;;;;-143.84;55.80;44986.22;5072233;28;20429;-56
2023/07/07 04:46:39;;;;;;;5.97;4.50;;;;;;;-143.84;55.70;45009.09;5072658;28;21024;-56
2023/07/07 04:49:08;;;;;;;13.23;4.57;;;;;;;-143.84;55.14;44978.63;5072604;28;20544;-56
2023/07/07 04:51:36;;;;;;;9.53;4.73;;;;;;;-143.84;54.94;44978.63;5072417;28;20451;-56
2023/07/07 04:54:06;;;;;;;5.00;4.23;;;;;;;-143.84;54.25;44980.53;5072490;28;20445;-56
2023/07/07 04:56:34;;;;;;;5.03;4.13;;;;;;;-143.84;53.74;44984.31;5072379;28;20437;-56
2023/07/07 04:59:01;;;;;;;4.60;4.23;;;;;;;-143.84;53.83;44984.31;5072310;28;20442;-54
2023/07/07 05:01:30;;;;;;;6.97;4.53;;;;;;;-143.84;53.41;44976.72;5072739;28;20463;-54
2023/07/07 05:04:00;;;;;;;7.90;3.80;;;;;;;-143.84;52.33;44982.41;5072261;28;20484;-54
2023/07/07 05:06:30;;;;;;;6.73;4.30;;;;;;;-143.84;51.46;44969.09;5072584;28;20429;-54
2023/07/07 05:08:57;;;;;;;4.87;4.40;;;;;;;-143.84;50.65;44976.72;5072315;28;20863;-54
2023/07/07 05:11:28;;;;;;;4.57;4.20;;;;;;;-143.84;50.08;44961.47;5072325;28;20446;-54
2023/07/07 05:13:56;;;;;;;6.00;3.63;;;;;;;-143.84;48.90;44971.00;5072634;28;21053;-54
2023/07/07 05:16:25;;;;;;;4.77;4.30;;;;;;;-143.84;48.74;44951.97;5072806;28;20534;-54
2023/07/07 05:18:53;;;;;;;6.60;3.90;;;;;;;-143.84;47.87;44969.09;5072529;28;20446;-54
2023/07/07 05:21:22;;;;;;;6.30;4.07;;;;;;;-143.84;47.02;44946.25;5072331;28;20510;-54
2023/07/07 05:23:51;;;;;;;6.20;4.00;;;;;;;-143.84;46.64;44931.00;5072437;28;20449;-54
2023/07/07 05:26:19;;;;;;;8.47;4.03;;;;;;;-143.84;46.01;44921.50;5072278;28;20835;-54
2023/07/07 05:28:47;;;;;;;5.27;3.47;;;;;;;-143.84;45.31;44934.81;5072059;28;20452;-54
2023/07/07 05:31:15;;;;;;;5.43;3.40;;;;;;;-143.84;45.26;44946.25;5071251;28;20489;-55
2023/07/07 05:33:42;;;;;;;3.20;2.90;;;;;;;-143.84;44.85;44923.41;5072117;28;20436;-54
2023/07/07 05:36:10;;;;;;;3.43;3.23;;;;;;;-143.84;44.43;44910.06;5072003;28;20514;-54
2023/07/07 05:38:39;;;;;;;3.70;3.40;;;;;;;-143.84;44.55;44919.59;5071908;28;20444;-54
2023/07/07 05:41:07;;;;;;;4.90;4.10;;;;;;;-143.84;43.70;44927.19;5071745;28;20437;-54
2023/07/07 05:43:35;;;;;;;5.93;3.20;;;;;;;-143.84;43.80;44942.44;5072033;28;20510;-54
2023/07/07 05:46:05;;;;;;;6.00;3.60;;;;;;;-143.84;43.21;44932.91;5071677;28;20882;-54
2023/07/07 05:48:33;;;;;;;5.43;3.20;;;;;;;-143.84;43.06;44917.69;5071471;28;20449;-54
2023/07/07 05:51:02;;;;;;;8.53;3.33;;;;;;;-143.84;42.86;44921.50;5071550;28;20494;-54
2023/07/07 05:53:29;;;;;;;6.40;3.20;;;;;;;-143.84;43.36;44946.25;5071667;28;20444;-54
2023/07/07 05:56:03;;;;;;;6.10;3.27;;;;;;;-143.84;43.73;44931.00;5071655;28;20437;-54
2023/07/07 05:58:31;;;;;;;8.80;3.63;;;;;;;-143.84;43.87;44938.63;5071667;28;20516;-54
2023/07/07 06:00:58;;;;;;;5.93;3.10;;;;;;;-143.84;44.67;44967.19;5071765;28;20502;-54
2023/07/07 06:03:27;;;;;;;10.40;4.10;;;;;;;-143.84;45.48;44959.56;5071359;28;20487;-54
2023/07/07 06:05:54;;;;;;;3.83;3.53;;;;;;;-143.84;46.28;44965.28;5071308;28;20941;-54
2023/07/07 06:08:21;;;;;;;5.27;3.27;;;;;;;-143.84;46.75;44982.41;5071382;28;20518;-54
2023/07/07 06:10:49;;;;;;;8.03;3.30;;;;;;;-143.84;47.63;44955.75;5071574;28;20480;-54
2023/07/07 06:13:17;;;;;;;5.40;3.90;;;;;;;-143.84;48.46;44965.28;5071101;28;20833;-54
2023/07/07 06:15:45;;;;;;;4.10;3.70;;;;;;;-143.84;48.27;44972.91;5071129;28;20949;-54
2023/07/07 06:18:12;;;;;;;5.23;3.67;;;;;;;-143.84;49.22;44965.28;5071423;28;20445;-54
2023/07/07 06:20:41;;;;;;;6.00;4.00;;;;;;;-143.84;49.79;44957.66;5071233;28;20442;-54
2023/07/07 06:23:09;;;;;;;5.30;3.10;;;;;;;-143.84;49.97;44965.28;5070949;28;20445;-54
2023/07/07 06:25:37;;;;;;;3.67;3.40;;;;;;;-143.84;50.38;44976.72;5070851;28;20446;-54
2023/07/07 06:28:04;;;;;;;10.83;3.77;;;;;;;-143.84;49.88;44999.56;5071033;28;20445;-54
2023/07/07 06:30:31;;;;;;;4.33;3.47;;;;;;;-143.84;50.14;44984.31;5071131;28;20893;-54
2023/07/07 06:32:58;;;;;;;25.97;4.33;;;;;;;-143.84;51.25;44969.09;5071106;28;20437;-54
2023/07/07 06:35:26;;;;;;;7.43;4.13;;;;;;;-143.84;51.47;44957.66;5070773;28;20607;-54
2023/07/07 06:37:54;;;;;;;10.60;3.83;;;;;;;-143.84;51.80;44967.19;5070981;28;20965;-54
2023/07/07 06:40:21;;;;;;;4.00;3.70;;;;;;;-143.84;51.54;44967.19;5070493;28;20531;-54
2023/07/07 06:42:50;;;;;;;9.30;3.87;;;;;;;-143.84;51.65;44969.09;5070171;28;20433;-54
2023/07/07 06:45:17;;;;;;;5.47;3.67;;;;;;;-143.84;51.13;44963.38;5070662;28;20449;-54
2023/07/07 06:47:44;;;;;;;4.63;4.23;;;;;;;-143.84;51.26;44982.41;5070761;28;21095;-54
2023/07/07 06:50:18;;;;;;;21.93;3.80;;;;;;;-143.84;51.31;44995.75;5070773;28;20477;-54
2023/07/07 06:52:45;;;;;;;5.70;4.73;;;;;;;-143.84;51.82;44980.53;5070235;28;20441;-54
2023/07/07 06:55:14;;;;;;;8.90;4.40;;;;;;;-143.84;51.67;44965.28;5070839;28;20467;-54
2023/07/07 06:57:41;;;;;;;7.10;4.40;;;;;;;-143.84;51.21;44972.91;5070384;28;20871;-54
2023/07/07 07:00:09;;;;;;;17.87;4.00;;;;;;;-143.84;51.89;44978.63;5070396;28;20441;-54
2023/07/07 07:02:36;;;;;;;4.70;4.23;;;;;;;-143.84;51.96;44961.47;5069962;28;20481;-54
2023/07/07 07:05:04;;;;;;;4.27;3.93;;;;;;;-143.84;51.88;44969.09;5070203;28;20499;-54
2023/07/07 07:07:32;;;;;;;6.23;4.70;;;;;;;-143.84;51.71;44967.19;5070140;28;20437;-54
2023/07/07 07:09:59;;;;;;;15.43;3.57;;;;;;;-143.84;51.67;44978.63;5070121;28;20841;-54
2023/07/07 07:12:28;;;;;;;8.40;4.30;;;;;;;-143.84;51.83;44976.72;5070046;28;20495;-54
2023/07/07 07:14:55;;;;;;;7.30;4.47;;;;;;;-143.84;51.50;44961.47;5070049;28;20484;-54
2023/07/07 07:17:22;;;;;;;10.70;4.23;;;;;;;-143.84;51.16;44961.47;5069800;28;20510;-54
2023/07/07 07:19:49;;;;;;;15.63;4.87;;;;;;;-143.84;50.59;44961.47;5070260;28;20492;-54
2023/07/07 07:22:17;;;;;;;7.40;3.50;;;;;;;-143.84;49.61;44936.72;5069754;28;20442;-54
2023/07/07 07:24:44;;;;;;;4.90;4.00;;;;;;;-143.84;48.88;44963.38;5070073;28;20450;-54
2023/07/07 07:27:11;;;;;;;4.20;3.90;;;;;;;-143.84;49.29;44971.00;5070083;28;20441;-54
2023/07/07 07:29:42;;;;;;;10.80;4.63;;;;;;;-143.84;49.34;44972.91;5070148;28;20795;-54
2023/07/07 07:32:09;;;;;;;4.60;4.13;;;;;;;-143.84;48.20;44978.63;5069752;28;20442;-54
2023/07/07 07:34:36;;;;;;;6.53;4.47;;;;;;;-143.84;46.38;44965.28;5069835;28;20486;-54
2023/07/07 07:37:05;;;;;;;12.33;4.07;;;;;;;-143.84;46.24;44969.09;5069598;28;20445;-54
2023/07/07 07:39:33;;;;;;;6.87;3.53;;;;;;;-143.84;45.11;44957.66;5069982;28;20452;-54
2023/07/07 07:42:00;;;;;;;9.10;3.60;;;;;;;-143.84;44.61;44942.44;5069896;28;20502;-54
2023/07/07 07:44:27;;;;;;;12.43;3.23;;;;;;;-143.84;45.01;44953.88;5069756;28;20441;-54
2023/07/07 07:46:58;;;;;;;5.83;3.83;;;;;;;-143.84;44.88;44959.56;5069625;28;20441;-54
2023/07/07 07:49:26;;;;;;;10.20;3.90;;;;;;;-143.84;44.54;44927.19;5069601;28;20437;-54
2023/07/07 07:51:54;;;;;;;4.00;3.70;;;;;;;-143.84;44.00;44931.00;5069263;28;20489;-54
2023/07/07 07:54:22;;;;;;;4.10;3.70;;;;;;;-143.84;43.95;44967.19;5068982;28;20506;-54
2023/07/07 07:56:49;;;;;;;7.43;4.47;;;;;;;-143.84;44.54;44961.47;5069321;28;20499;-54
2023/07/07 07:59:16;;;;;;;6.07;4.07;;;;;;;-143.84;44.21;44969.09;5069853;28;20504;-54
2023/07/07 08:01:44;;;;;;;4.30;3.90;;;;;;;-143.84;43.73;44925.31;5069469;28;21021;-54
2023/07/07 08:04:13;;;;;;;13.53;4.40;;;;;;;-143.84;43.99;44925.31;5069148;28;20473;-54
2023/07/07 08:06:42;;;;;;;7.90;3.57;;;;;;;-143.84;44.03;44927.19;5069349;28;20494;-54
2023/07/07 08:09:11;;;;;;;3.73;3.33;;;;;;;-143.84;43.32;44959.56;5068769;28;20448;-54
2023/07/07 08:11:56;;;;;;;6.23;3.70;;;;;;;-143.84;42.85;44940.53;5069522;28;20567;-54
2023/07/07 08:14:30;;;;;;;4.10;3.23;;;;;;;-143.84;43.28;44950.06;5069349;28;20444;-54
2023/07/07 08:16:59;;;;;;;3.50;3.30;;;;;;;-143.84;41.79;44942.44;5069335;28;20444;-54
2023/07/07 08:19:27;;;;;;;6.20;3.53;;;;;;;-143.84;42.07;44951.97;5069366;28;20452;-54
2023/07/07 08:21:54;;;;;;;3.60;3.30;;;;;;;-143.84;41.25;44923.41;5069126;28;20513;-54
2023/07/07 08:24:21;;;;;;;7.20;3.20;;;;;;;-143.84;40.73;44942.44;5069115;28;20495;-54
2023/07/07 08:26:49;;;;;;;5.10;3.37;;;;;;;-143.84;41.20;44942.44;5069236;28;20478;-54
2023/07/07 08:29:16;;;;;;;6.63;3.20;;;;;;;-143.84;40.57;44951.97;5068980;28;20460;-54
2023/07/07 08:31:44;;;;;;;13.27;4.00;;;;;;;-143.84;40.56;44942.44;5069234;28;20549;-54
2023/07/07 08:34:11;;;;;;;4.30;3.10;;;;;;;-143.84;40.68;44942.44;5068902;28;20790;-54
2023/07/07 08:36:40;;;;;;;9.97;2.90;;;;;;;-143.84;41.30;44929.09;5069096;28;20444;-54
2023/07/07 08:39:12;;;;;;;8.20;5.40;;;;;;;-143.84;41.65;44934.81;5069133;28;20860;-54
2023/07/07 08:41:45;;;;;;;4.63;3.70;;;;;;;-143.84;40.74;44946.25;5069153;28;20441;-54
2023/07/07 08:44:15;;;;;;;3.90;3.60;;;;;;;-143.84;41.15;44904.34;5069462;28;20455;-54
2023/07/07 08:46:53;;;;;;;8.20;3.80;;;;;;;-143.84;40.30;44917.69;5068924;28;21000;-54
2023/07/07 08:49:28;;;;;;;7.17;3.10;;;;;;;-143.84;40.39;44919.59;5069116;28;20839;-54
2023/07/07 08:52:05;;;;;;;14.50;3.60;;;;;;;-143.84;40.62;44889.13;5069252;28;20539;-54
2023/07/07 08:54:50;;;;;;;9.03;4.50;;;;;;;-143.84;41.33;44917.69;5069067;28;20857;-54
2023/07/07 08:57:18;;;;;;;9.07;3.90;;;;;;;-143.84;41.09;44913.88;5068583;28;20981;-57
2023/07/07 08:59:53;;;;;;;17.40;6.10;;;;;;;-143.84;40.58;44932.91;5068424;28;20449;-57
2023/07/07 09:02:43;;;;;;;4.63;4.30;;;;;;;-143.84;40.69;44913.88;5068015;28;20445;-57
2023/07/07 09:05:26;;;;;;;6.50;4.00;;;;;;;-143.84;40.80;44906.25;5068411;28;20441;-57
2023/07/07 09:08:09;;;;;;;6.43;3.70;;;;;;;-143.84;41.27;44915.78;5071254;28;20437;-57
2023/07/07 09:10:42;;;;;;;8.90;4.00;;;;;;;-143.84;41.01;44904.34;5071886;28;20550;-57
2023/07/07 09:13:20;;;;;;;11.20;4.73;;;;;;;-143.84;40.10;44887.22;5071486;28;20463;-57
2023/07/07 09:16:00;;;;;;;8.87;3.90;;;;;;;-143.84;38.92;44881.50;5071347;28;20552;-57
2023/07/07 09:18:33;;;;;;;4.07;3.67;;;;;;;-143.84;38.92;44866.28;5071293;28;20445;-57
2023/07/07 09:21:04;;;;;;;7.30;3.90;;;;;;;-143.84;39.67;44862.47;5071980;28;20441;-57
2023/07/07 09:23:37;;;;;;;20.53;4.30;;;;;;;-143.84;38.27;44870.09;5071822;28;20439;-57
2023/07/07 09:26:09;;;;;;;9.97;3.80;;;;;;;-143.84;36.71;44868.19;5071686;28;20441;-57
2023/07/07 09:28:44;;;;;;;7.20;3.90;;;;;;;-143.84;37.72;44832.00;5071510;28;20441;-57
2023/07/07 09:31:28;;;;;;;5.60;4.07;;;;;;;-143.84;36.23;44837.72;5071687;28;20487;-57
2023/07/07 09:33:59;;;;;;;15.10;3.60;;;;;;;-143.84;36.48;44854.84;5071515;28;20437;-57
2023/07/07 09:36:30;;;;;;;19.20;4.53;;;;;;;-143.84;36.72;44851.03;5071867;28;20450;-57
2023/07/07 09:39:11;;;;;;;13.03;4.30;;;;;;;-143.84;36.23;44852.94;5071747;28;20434;-57
2023/07/07 09:41:51;;;;;;;5.27;3.80;;;;;;;-143.84;37.22;44843.44;5071415;28;20449;-57
2023/07/07 09:44:33;;;;;;;13.13;3.87;;;;;;;-143.84;36.88;44851.03;5071241;28;20479;-57
2023/07/07 09:47:08;;;;;;;8.50;3.40;;;;;;;-143.84;36.43;44858.66;5071144;28;20444;-56
2023/07/07 09:49:43;;;;;;;5.60;3.80;;;;;;;-143.84;37.53;44849.13;5071437;28;20465;-57
2023/07/07 09:52:26;;;;;;;3.33;3.10;;;;;;;-143.84;36.47;44835.81;5071135;28;20526;-57
2023/07/07 09:54:58;;;;;;;6.67;3.30;;;;;;;-143.84;35.05;44826.28;5071338;28;20445;-57
2023/07/07 09:57:30;;;;;;;11.23;4.37;;;;;;;-143.84;35.57;44832.00;5071140;28;20495;-57
2023/07/07 09:59:59;;;;;;;5.23;3.70;;;;;;;-143.84;35.25;44809.16;5071045;28;20437;-57
2023/07/07 10:02:27;;;;;;;7.37;3.70;;;;;;;-143.84;35.36;44837.72;5070440;28;20455;-57
2023/07/07 10:04:58;;;;;;;4.80;3.20;;;;;;;-143.84;35.14;44839.63;5070893;28;20467;-57
2023/07/07 10:07:27;;;;;;;3.77;3.13;;;;;;;-143.84;34.19;44790.13;5070868;28;20449;-57
2023/07/07 10:09:59;;;;;;;4.17;3.47;;;;;;;-143.84;34.79;44797.72;5070897;28;20445;-57
2023/07/07 10:12:26;;;;;;;3.40;2.90;;;;;;;-143.84;34.42;44795.81;5070740;28;21006;-57
2023/07/07 10:14:55;;;;;;;6.10;3.60;;;;;;;-143.84;34.35;44797.72;5071082;28;20507;-57
2023/07/07 10:17:32;;;;;;;7.47;3.67;;;;;;;-143.84;35.32;44793.91;5070477;28;20445;-57
2023/07/07 10:20:01;;;;;;;5.70;3.10;;;;;;;-143.84;33.81;44822.47;5070631;28;20441;-57
2023/07/07 10:22:29;;;;;;;3.53;3.23;;;;;;;-143.84;33.85;44826.28;5070737;28;20445;-57
2023/07/07 10:24:57;;;;;;;4.63;3.20;;;;;;;-143.84;34.62;44811.06;5070235;28;20445;-57
2023/07/07 10:27:27;;;;;;;21.53;3.37;;;;;;;-143.84;33.37;44801.53;5070335;28;20442;-57
2023/07/07 10:29:59;;;;;;;11.73;4.53;;;;;;;-143.84;35.07;44801.53;5075495;28;20449;-56
2023/07/07 10:32:26;;;;;;;8.67;4.20;;;;;;;-143.84;34.09;44767.25;5090467;28;20491;-57
2023/07/07 10:34:55;;;;;;;8.53;4.73;;;;;;;-143.84;34.64;44780.59;5090847;28;20452;-56
2023/07/07 10:37:24;;;;;;;11.20;4.43;;;;;;;-143.84;34.95;44841.53;5082410;28;20834;-57
2023/07/07 10:39:53;;;;;;;4.97;4.17;;;;;;;-143.84;35.19;44792.00;5075763;28;20507;-56
2023/07/07 10:42:23;;;;;;;11.13;3.90;;;;;;;-143.84;34.68;44795.81;5070442;28;20490;-57
2023/07/07 10:44:51;;;;;;;4.87;3.80;;;;;;;-143.84;35.13;44797.72;5069266;28;20848;-56
2023/07/07 10:47:21;;;;;;;3.63;3.33;;;;;;;-143.84;34.19;44784.41;5079301;28;21332;-56
2023/07/07 10:49:49;;;;;;;19.60;4.30;;;;;;;-143.84;34.69;44811.06;5075339;28;20830;-56
2023/07/07 10:52:33;;;;;;;8.67;4.27;;;;;;;-143.84;34.68;44807.25;5079399;28;20954;-56
2023/07/07 10:55:08;;;;;;;9.30;4.37;;;;;;;-143.84;34.31;44799.63;5077382;28;20429;-56
2023/07/07 10:57:45;;;;;;;16.80;4.50;;;;;;;-143.84;34.96;44801.53;5078941;28;20447;-56
2023/07/07 11:00:29;;;;;;;3.83;3.53;;;;;;;-143.84;33.86;44805.34;5078679;28;20451;-56
2023/07/07 11:03:15;;;;;;;7.47;4.10;;;;;;;-143.84;34.46;44811.06;5068602;28;20485;-56
2023/07/07 11:05:46;;;;;;;8.03;4.20;;;;;;;-143.84;35.17;44830.09;5067205;28;20441;-56
2023/07/07 11:08:28;;;;;;;7.70;4.00;;;;;;;-143.84;35.42;44828.19;5079839;28;20479;-56
2023/07/07 11:11:13;;;;;;;9.40;4.80;;;;;;;-143.84;34.89;44845.31;5074227;28;20447;-56
2023/07/07 11:13:57;;;;;;;7.37;4.03;;;;;;;-143.84;35.13;44879.59;5079088;28;20445;-56
2023/07/07 11:16:33;;;;;;;7.07;4.10;;;;;;;-143.84;35.32;44837.72;5076333;28;20447;-56
2023/07/07 11:19:14;;;;;;;16.47;4.70;;;;;;;-143.84;34.82;44866.28;5078955;28;20433;-56
2023/07/07 11:21:48;;;;;;;6.30;3.90;;;;;;;-143.84;35.41;44847.22;5078824;28;20440;-56
2023/07/07 11:24:25;;;;;;;11.50;3.93;;;;;;;-143.84;35.29;44854.84;5078285;28;20441;-56
2023/07/07 11:27:08;;;;;;;9.33;3.43;;;;;;;-143.84;35.13;44839.63;5078463;28;20445;-56
2023/07/07 11:29:45;;;;;;;5.00;4.10;;;;;;;-143.84;34.51;44820.56;5076546;28;20493;-56